createdAt,value
2024-03-15T02:58:55.174Z,104.10
2024-03-15T03:01:41.181Z,122.50
2024-03-15T03:04:26.970Z,131.60
2024-03-15T03:07:12.730Z,140.80
2024-03-15T03:09:58.144Z,88.10
2024-03-15T03:12:43.731Z,64.40
2024-03-15T03:15:29.972Z,62.80
2024-03-15T03:18:16.745Z,61.90
2024-03-15T03:21:02.365Z,67.60
2024-03-15T03:23:48.180Z,68.90
2024-03-15T03:26:33.708Z,56.90
2024-03-15T03:29:20.481Z,61.90
2024-03-15T03:32:07.939Z,58.30
2024-03-15T03:34:54.965Z,71.60
2024-03-15T03:37:40.610Z,61.20
2024-03-15T03:40:27.116Z,60.00
2024-03-15T03:43:15.200Z,58.90
2024-03-15T03:46:01.552Z,58.70
2024-03-15T03:48:47.541Z,61.10
2024-03-15T03:51:33.131Z,56.10
2024-03-15T03:54:18.836Z,57.20
2024-03-15T03:57:04.819Z,58.90
2024-03-15T03:59:50.423Z,62.90
2024-03-15T04:02:35.905Z,64.20
2024-03-15T04:05:21.636Z,63.40
2024-03-15T04:08:07.437Z,57.30
2024-03-15T04:10:55.905Z,57.70
2024-03-15T04:13:42.183Z,54.60
2024-03-15T04:16:27.847Z,57.00
2024-03-15T04:19:14.492Z,54.00
2024-03-15T04:24:46.050Z,59.50
2024-03-15T04:27:34.489Z,79.30
2024-03-15T04:30:23.136Z,64.60
2024-03-15T04:33:09.102Z,65.60
2024-03-15T04:35:55.391Z,63.70
2024-03-15T04:38:40.880Z,63.60
2024-03-15T04:41:26.545Z,61.10
2024-03-15T04:44:12.042Z,61.10
2024-03-15T04:46:58.381Z,59.40
2024-03-15T04:49:44.080Z,57.40
2024-03-15T04:52:30.840Z,59.00
2024-03-15T04:55:16.583Z,64.90
2024-03-15T04:58:03.602Z,63.60
2024-03-15T05:00:50.802Z,66.50
2024-03-15T05:03:36.875Z,73.70
2024-03-15T05:06:30.537Z,70.30
2024-03-15T05:09:17.242Z,62.60
2024-03-15T05:12:03.612Z,65.50
2024-03-15T05:14:49.119Z,65.10
2024-03-15T05:17:34.751Z,66.90
2024-03-15T05:20:21.313Z,73.60
2024-03-15T05:23:08.781Z,74.00
2024-03-15T05:25:55.328Z,64.80
2024-03-15T05:28:42.786Z,69.00
2024-03-15T05:31:30.074Z,66.70
2024-03-15T05:34:16.642Z,65.70
2024-03-15T05:37:04.335Z,68.30
2024-03-15T05:39:52.104Z,75.10
2024-03-15T05:42:37.408Z,71.70
2024-03-15T05:45:23.572Z,65.20
2024-03-15T05:48:09.145Z,70.60
2024-03-15T05:50:54.754Z,70.60
2024-03-15T05:53:40.631Z,70.30
2024-03-15T05:56:26.552Z,77.70
2024-03-15T05:59:13.336Z,66.80
2024-03-15T06:02:01.106Z,68.00
2024-03-15T06:04:50.425Z,64.70
2024-03-15T06:07:36.170Z,74.40
2024-03-15T06:10:31.636Z,66.10
2024-03-15T06:16:11.390Z,73.10
2024-03-15T06:18:59.465Z,69.00
2024-03-15T06:21:46.561Z,81.90
2024-03-15T06:28:12.573Z,68.80
2024-03-15T06:31:00.281Z,64.70
2024-03-15T06:33:49.717Z,71.10
2024-03-15T06:36:43.497Z,68.00
2024-03-15T06:39:38.974Z,69.90
2024-03-15T06:42:25.564Z,71.20
2024-03-15T06:45:24.454Z,71.20
2024-03-15T06:48:23.087Z,70.70
2024-03-15T06:51:26.921Z,67.90
2024-03-15T06:54:15.003Z,65.60
2024-03-15T06:57:01.170Z,67.60
2024-03-15T06:59:46.760Z,68.80
2024-03-15T07:02:32.332Z,75.50
2024-03-15T07:05:17.798Z,71.20
2024-03-15T07:08:06.492Z,71.80
2024-03-15T07:10:54.617Z,65.60
2024-03-15T07:16:28.829Z,63.60
2024-03-15T07:19:15.880Z,72.40
2024-03-15T07:22:02.095Z,66.40
2024-03-15T07:24:51.570Z,91.90
2024-03-15T07:27:38.801Z,78.90
2024-03-15T07:33:11.062Z,95.20
2024-03-15T07:36:01.770Z,100.90
2024-03-15T07:38:48.610Z,125.70
2024-03-15T07:41:35.415Z,89.50
2024-03-15T07:44:23.840Z,147.40
2024-03-15T07:47:10.016Z,173.60
2024-03-15T07:49:56.246Z,149.00
2024-03-15T07:52:42.502Z,137.60
2024-03-15T07:55:28.399Z,192.50
2024-03-15T07:58:15.619Z,108.30
2024-03-15T08:01:02.411Z,105.20
2024-03-15T08:03:48.143Z,82.10
2024-03-15T08:06:33.952Z,83.30
2024-03-15T08:09:20.206Z,61.70
2024-03-15T08:12:07.226Z,98.40
2024-03-15T08:17:39.044Z,69.30
2024-03-15T08:20:25.139Z,73.40
2024-03-15T08:23:11.616Z,93.70
2024-03-15T08:25:58.767Z,87.20
2024-03-15T08:28:46.313Z,73.40
2024-03-15T08:31:32.845Z,78.50
2024-03-15T08:34:19.805Z,78.70
2024-03-15T08:37:08.228Z,82.10
2024-03-15T08:39:53.552Z,57.00
2024-03-15T08:42:40.685Z,92.10
2024-03-15T08:45:26.379Z,72.50
2024-03-15T08:48:13.047Z,60.60
2024-03-15T08:50:59.081Z,67.30
2024-03-15T08:53:59.782Z,62.00
2024-03-15T08:56:46.824Z,66.10
2024-03-15T08:59:34.356Z,57.70
2024-03-15T09:02:20.106Z,57.60
2024-03-15T09:05:09.409Z,55.30
2024-03-15T09:07:55.170Z,71.40
2024-03-15T09:10:41.375Z,53.00
2024-03-15T09:13:27.540Z,57.90
2024-03-15T09:16:14.321Z,52.80
2024-03-15T09:18:59.920Z,80.30
2024-03-15T09:21:49.429Z,80.00
2024-03-15T09:24:35.496Z,69.30
2024-03-15T09:27:21.822Z,75.30
2024-03-15T09:30:16.985Z,49.30
2024-03-15T09:33:10.114Z,75.80
2024-03-15T09:35:56.624Z,69.70
2024-03-15T09:38:43.081Z,85.20
2024-03-15T09:44:19.355Z,58.60
2024-03-15T09:47:14.802Z,45.30
2024-03-15T09:50:02.050Z,60.30
2024-03-15T09:52:50.771Z,80.80
2024-03-15T09:55:37.182Z,104.60
2024-03-15T10:01:43.491Z,75.20
2024-03-15T10:08:07.278Z,62.20
2024-03-15T10:10:52.740Z,50.00
2024-03-15T10:13:39.491Z,143.90
2024-03-15T10:16:30.535Z,53.20
2024-03-15T10:19:35.201Z,91.80
2024-03-15T10:22:23.570Z,50.30
2024-03-15T10:25:17.228Z,53.00
2024-03-15T10:28:04.694Z,55.50
2024-03-15T10:30:56.292Z,53.40
2024-03-15T10:33:45.411Z,54.50
2024-03-15T10:36:32.983Z,51.70
2024-03-15T10:39:18.806Z,49.20
2024-03-15T10:42:13.208Z,54.80
2024-03-15T10:44:58.818Z,50.90
2024-03-15T10:47:44.742Z,56.90
2024-03-15T10:50:30.835Z,42.90
2024-03-15T10:53:19.752Z,56.50
2024-03-15T10:56:07.710Z,45.40
2024-03-15T10:58:53.427Z,43.30
2024-03-15T11:01:40.918Z,44.50
2024-03-15T11:04:26.720Z,44.50
2024-03-15T11:07:12.538Z,44.40
2024-03-15T11:09:58.271Z,50.20
2024-03-15T11:12:51.151Z,43.30
2024-03-15T11:15:38.257Z,44.40
2024-03-15T11:18:24.078Z,43.90
2024-03-15T11:21:22.749Z,49.40
2024-03-15T11:24:14.918Z,51.20
2024-03-15T11:27:10.393Z,49.00
2024-03-15T11:29:57.621Z,47.40
2024-03-15T11:32:43.917Z,54.00
2024-03-15T11:35:30.228Z,47.80
2024-03-15T11:38:19.210Z,47.20
2024-03-15T11:41:05.188Z,51.50
2024-03-15T11:43:55.373Z,45.00
2024-03-15T11:46:47.960Z,42.40
2024-03-15T11:49:33.658Z,40.10
2024-03-15T11:52:19.295Z,49.90
2024-03-15T11:55:07.634Z,45.10
2024-03-15T11:57:53.395Z,46.00
2024-03-15T12:00:39.388Z,39.40
2024-03-15T12:03:27.106Z,47.00
2024-03-15T12:06:13.126Z,47.80
2024-03-15T12:09:04.148Z,53.50
2024-03-15T12:11:54.349Z,52.80
2024-03-15T12:14:40.804Z,52.00
2024-03-15T12:17:27.281Z,52.40
2024-03-15T12:20:13.004Z,44.70
2024-03-15T12:23:00.315Z,49.70
2024-03-15T12:25:47.285Z,59.30
2024-03-15T12:28:34.314Z,44.10
2024-03-15T12:34:06.017Z,47.00
2024-03-15T12:36:52.855Z,47.80
2024-03-15T12:39:40.203Z,62.60
2024-03-15T12:42:26.941Z,59.40
2024-03-15T12:47:59.211Z,72.70
2024-03-15T12:50:45.590Z,53.30
2024-03-15T12:53:31.185Z,61.00
2024-03-15T12:56:16.612Z,55.50
2024-03-15T12:59:01.868Z,62.60
2024-03-15T13:01:47.457Z,54.50
2024-03-15T13:04:33.189Z,74.30
2024-03-15T13:07:18.880Z,58.60
2024-03-15T13:10:04.764Z,54.60
2024-03-15T13:12:53.928Z,61.90
2024-03-15T13:19:32.602Z,50.90
2024-03-15T13:22:19.947Z,56.60
2024-03-15T13:25:14.668Z,59.90
2024-03-15T13:28:08.585Z,56.40
2024-03-15T13:30:55.265Z,49.80
2024-03-15T13:33:40.942Z,55.30
2024-03-15T13:36:28.306Z,68.50
2024-03-15T13:39:31.336Z,52.90
2024-03-15T13:42:34.538Z,53.70
2024-03-15T13:45:23.455Z,47.70
2024-03-15T13:48:28.447Z,52.70
2024-03-15T13:51:14.684Z,48.70
2024-03-15T13:54:01.630Z,49.00
2024-03-15T13:59:34.364Z,47.30
2024-03-15T14:05:07.706Z,51.00
2024-03-15T14:07:53.830Z,47.80
2024-03-15T14:10:43.253Z,46.70
2024-03-15T14:13:30.516Z,51.90
2024-03-15T14:16:17.095Z,46.30
2024-03-15T14:19:05.486Z,46.70
2024-03-15T14:21:51.751Z,51.40
2024-03-15T14:24:37.363Z,51.00
2024-03-15T14:27:23.213Z,54.10
2024-03-15T14:30:12.028Z,55.60
2024-03-15T14:32:59.758Z,47.80
2024-03-15T14:35:49.631Z,50.00
2024-03-15T14:38:39.571Z,54.60
2024-03-15T14:41:24.999Z,59.10
2024-03-15T14:44:14.007Z,51.50
2024-03-15T14:46:59.734Z,44.70
2024-03-15T14:49:45.340Z,54.10
2024-03-15T14:52:37.296Z,50.20
2024-03-15T14:55:25.591Z,50.80
2024-03-15T14:58:15.220Z,56.50
2024-03-15T15:01:01.569Z,56.90
2024-03-15T15:03:49.932Z,56.40
2024-03-15T15:06:35.858Z,50.50
2024-03-15T15:09:22.215Z,54.20
2024-03-15T15:12:08.036Z,46.90
2024-03-15T15:14:53.911Z,55.50
2024-03-15T15:17:42.390Z,52.10
2024-03-15T15:20:29.477Z,54.00
2024-03-15T15:26:22.848Z,56.10
2024-03-15T15:29:08.871Z,53.20
2024-03-15T15:31:58.074Z,61.50
2024-03-15T15:34:43.320Z,55.00
2024-03-15T15:37:28.836Z,66.60
2024-03-15T15:40:15.449Z,56.50
2024-03-15T15:43:02.056Z,54.90
2024-03-15T15:48:38.692Z,51.30
2024-03-15T15:51:28.624Z,60.80
2024-03-15T15:54:15.615Z,55.80
2024-03-15T15:57:02.159Z,54.80
2024-03-15T15:59:47.502Z,59.90
2024-03-15T16:02:34.019Z,68.40
2024-03-15T16:05:20.062Z,66.60
2024-03-15T16:08:07.821Z,61.30
2024-03-15T16:10:53.898Z,63.90
2024-03-15T16:13:40.135Z,74.90
2024-03-15T16:16:25.459Z,70.90
2024-03-15T16:19:13.044Z,80.50
2024-03-15T16:22:03.520Z,72.30
2024-03-15T16:24:49.187Z,77.10
2024-03-15T16:27:38.357Z,82.00
2024-03-15T16:30:25.769Z,69.40
2024-03-15T16:33:15.827Z,76.80
2024-03-15T16:36:01.576Z,77.30
2024-03-15T16:38:47.093Z,63.60
2024-03-15T16:41:37.312Z,63.50
2024-03-15T16:44:25.854Z,64.10
2024-03-15T16:47:11.400Z,59.90
2024-03-15T16:49:57.033Z,60.00
2024-03-15T16:52:43.052Z,76.60
2024-03-15T16:55:29.332Z,71.10
2024-03-15T16:58:15.431Z,75.10
2024-03-15T17:01:03.594Z,80.80
2024-03-15T17:03:49.066Z,72.30
2024-03-15T17:06:37.128Z,82.10
2024-03-15T17:09:26.090Z,69.40
2024-03-15T17:12:11.854Z,72.70
2024-03-15T17:14:59.063Z,59.90
2024-03-15T17:17:45.047Z,71.10
2024-03-15T17:20:33.919Z,73.50
2024-03-15T17:23:22.453Z,66.20
2024-03-15T17:26:08.130Z,65.70
2024-03-15T17:28:53.876Z,70.70
2024-03-15T17:35:29.111Z,62.90
2024-03-15T17:41:00.513Z,69.10
2024-03-15T17:43:46.954Z,64.00
2024-03-15T17:46:32.447Z,58.70
2024-03-15T17:49:18.940Z,79.90
2024-03-15T17:52:06.245Z,95.60
2024-03-15T17:54:51.852Z,95.20
2024-03-15T17:57:37.776Z,85.20
2024-03-15T18:00:25.724Z,84.90
2024-03-15T18:03:11.498Z,85.60
2024-03-15T18:05:57.423Z,80.80
2024-03-15T18:08:43.386Z,75.80
2024-03-15T18:11:30.491Z,82.00
2024-03-15T18:14:16.407Z,75.90
2024-03-15T18:17:01.775Z,71.00
2024-03-15T18:19:49.160Z,71.10
2024-03-15T18:22:34.552Z,67.40
2024-03-15T18:25:19.878Z,77.00
2024-03-15T18:28:06.544Z,68.30
2024-03-15T18:30:52.188Z,66.10
2024-03-15T18:33:39.156Z,68.70
2024-03-15T18:36:25.790Z,99.90
2024-03-15T18:39:11.727Z,125.30
2024-03-15T18:41:57.622Z,137.20
2024-03-15T18:44:43.277Z,136.10
2024-03-15T18:47:29.875Z,119.10
2024-03-15T18:50:15.766Z,116.80
2024-03-15T18:53:01.120Z,104.10
2024-03-15T18:55:47.638Z,103.10
2024-03-15T18:58:33.281Z,75.30
2024-03-15T19:01:21.074Z,71.70
2024-03-15T19:04:07.118Z,69.50
2024-03-15T19:06:52.857Z,78.50
2024-03-15T19:09:39.196Z,64.30
2024-03-15T19:12:25.867Z,63.60
2024-03-15T19:15:11.971Z,64.50
2024-03-15T19:17:57.452Z,71.40
2024-03-15T19:20:43.522Z,72.20
2024-03-15T19:23:31.021Z,73.60
2024-03-15T19:26:17.029Z,72.70
2024-03-15T19:29:02.859Z,76.00
2024-03-15T19:31:50.725Z,70.40
2024-03-15T19:34:36.810Z,67.30
2024-03-15T19:37:23.436Z,63.10
2024-03-15T19:40:11.217Z,66.80
2024-03-15T19:42:58.181Z,73.50
2024-03-15T19:45:44.672Z,70.60
2024-03-15T19:48:30.604Z,71.70
2024-03-15T19:51:19.957Z,72.30
2024-03-15T19:54:05.768Z,97.20
2024-03-15T19:56:51.943Z,103.90
2024-03-15T19:59:37.605Z,94.50
2024-03-15T20:02:23.965Z,83.40
2024-03-15T20:05:09.559Z,85.60
2024-03-15T20:07:55.014Z,90.00
2024-03-15T20:10:41.059Z,89.70
2024-03-15T20:13:26.576Z,124.30
2024-03-15T20:16:14.145Z,114.20
2024-03-15T20:18:59.508Z,98.70
2024-03-15T20:21:45.394Z,85.30
2024-03-15T20:24:31.372Z,80.60
2024-03-15T20:27:16.708Z,80.60
2024-03-15T20:30:04.986Z,78.60
2024-03-15T20:32:50.988Z,68.20
2024-03-15T20:35:36.511Z,65.80
2024-03-15T20:38:22.137Z,74.60
2024-03-15T20:41:08.173Z,80.50
2024-03-15T20:43:54.116Z,77.20
2024-03-15T20:46:39.773Z,81.40
2024-03-15T20:49:25.838Z,87.30
2024-03-15T20:52:11.287Z,87.80
2024-03-15T20:54:56.707Z,79.80
2024-03-15T20:57:42.113Z,71.90
2024-03-15T21:00:28.109Z,67.30
2024-03-15T21:03:14.544Z,66.70
2024-03-15T21:06:00.047Z,81.90
2024-03-15T21:08:46.473Z,75.20
2024-03-15T21:14:18.880Z,76.70
2024-03-15T21:17:06.215Z,69.80
2024-03-15T21:19:52.593Z,74.20
2024-03-15T21:22:37.981Z,81.10
2024-03-15T21:25:29.224Z,83.70
2024-03-15T21:28:14.940Z,77.60
2024-03-15T21:31:00.195Z,94.70
2024-03-15T21:33:47.888Z,84.40
2024-03-15T21:36:33.815Z,78.30
2024-03-15T21:39:21.622Z,72.50
2024-03-15T21:42:07.593Z,67.50
2024-03-15T21:44:53.269Z,64.30
2024-03-15T21:47:41.022Z,72.20
2024-03-15T21:50:27.899Z,68.60
2024-03-15T21:53:14.390Z,60.60
2024-03-15T21:55:59.877Z,64.40
2024-03-15T21:58:45.516Z,66.70
2024-03-15T22:01:37.737Z,60.50
2024-03-15T22:04:30.540Z,65.70
2024-03-15T22:07:16.677Z,68.80
2024-03-15T22:10:02.619Z,58.40
2024-03-15T22:12:49.045Z,57.80
2024-03-15T22:15:35.016Z,59.20
2024-03-15T22:18:20.931Z,60.80
2024-03-15T22:21:06.394Z,64.10
2024-03-15T22:23:51.834Z,58.60
2024-03-15T22:26:38.220Z,65.90
2024-03-15T22:29:24.075Z,57.20
2024-03-15T22:32:11.905Z,56.90
2024-03-15T22:34:57.630Z,61.60
2024-03-15T22:37:45.910Z,64.30
2024-03-15T22:40:31.734Z,56.70
2024-03-15T22:43:16.979Z,54.60
2024-03-15T22:46:02.271Z,57.20
2024-03-15T22:48:48.201Z,63.10
2024-03-15T22:51:34.302Z,58.00
2024-03-15T22:54:19.512Z,60.60
2024-03-15T22:57:05.153Z,60.10
2024-03-15T22:59:51.258Z,61.40
2024-03-15T23:02:36.830Z,68.30
2024-03-15T23:05:22.311Z,60.00
2024-03-15T23:08:07.593Z,59.10
2024-03-15T23:10:54.406Z,51.60
2024-03-15T23:13:39.926Z,60.60
2024-03-15T23:16:25.986Z,63.40
2024-03-15T23:19:12.654Z,56.00
2024-03-15T23:21:59.591Z,61.60
2024-03-15T23:24:48.407Z,60.00
2024-03-15T23:27:39.322Z,66.10
2024-03-15T23:30:25.203Z,58.80
2024-03-15T23:33:14.922Z,61.10
2024-03-15T23:36:00.418Z,58.80
2024-03-15T23:38:46.385Z,62.70
2024-03-15T23:41:33.953Z,59.80
2024-03-15T23:44:20.138Z,56.30
2024-03-15T23:47:06.313Z,62.30
2024-03-15T23:49:52.450Z,61.10
2024-03-15T23:52:38.112Z,57.80
2024-03-15T23:55:23.657Z,53.80
2024-03-15T23:58:09.148Z,59.70
